createdAt,value
2017-11-27T00:00:57.449Z,7.40
2017-11-27T00:01:57.447Z,9.90
2017-11-27T00:02:57.701Z,5.90
2017-11-27T00:03:57.446Z,6.60
2017-11-27T00:04:57.434Z,10.80
2017-11-27T00:05:57.434Z,7.40
2017-11-27T00:06:57.430Z,7.40
2017-11-27T00:07:57.423Z,10.10
2017-11-27T00:08:57.427Z,8.20
2017-11-27T00:09:57.416Z,8.10
2017-11-27T00:10:57.418Z,7.40
2017-11-27T00:11:57.411Z,10.00
2017-11-27T00:12:57.410Z,9.30
2017-11-27T00:13:57.402Z,6.00
2017-11-27T00:14:57.398Z,7.00
2017-11-27T00:15:57.401Z,8.50
2017-11-27T00:16:57.390Z,9.90
2017-11-27T00:17:57.392Z,8.70
2017-11-27T00:18:57.385Z,6.70
2017-11-27T00:19:57.385Z,7.00
2017-11-27T00:20:57.380Z,8.90
2017-11-27T00:21:57.376Z,6.80
2017-11-27T00:22:57.372Z,8.50
2017-11-27T00:23:57.368Z,10.20
2017-11-27T00:24:57.371Z,10.60
2017-11-27T00:25:57.362Z,10.60
2017-11-27T00:26:57.366Z,7.60
2017-11-27T00:27:57.358Z,8.70
2017-11-27T00:28:57.350Z,8.50
2017-11-27T00:29:57.346Z,7.30
2017-11-27T00:30:57.344Z,8.20
2017-11-27T00:31:57.340Z,8.40
2017-11-27T00:32:57.444Z,7.20
2017-11-27T00:33:57.337Z,7.40
2017-11-27T00:34:57.330Z,10.40
2017-11-27T00:35:57.333Z,12.10
2017-11-27T00:36:57.323Z,5.60
2017-11-27T00:37:57.327Z,7.80
2017-11-27T00:38:57.320Z,11.90
2017-11-27T00:39:57.320Z,8.70
2017-11-27T00:40:57.316Z,8.80
2017-11-27T00:41:57.334Z,8.30
2017-11-27T00:42:57.297Z,7.90
2017-11-27T00:43:57.298Z,12.60
2017-11-27T00:44:57.294Z,10.40
2017-11-27T00:46:03.068Z,11.20
2017-11-27T00:46:57.291Z,6.90
2017-11-27T00:47:57.281Z,10.10
2017-11-27T00:48:57.275Z,9.80
2017-11-27T00:49:57.275Z,9.50
2017-11-27T00:50:57.272Z,9.20
2017-11-27T00:51:57.267Z,5.90
2017-11-27T00:52:57.261Z,11.80
2017-11-27T00:53:57.268Z,5.80
2017-11-27T00:54:58.074Z,10.80
2017-11-27T00:55:57.252Z,9.20
2017-11-27T00:56:57.256Z,10.80
2017-11-27T00:57:57.251Z,8.10
2017-11-27T00:58:57.249Z,11.60
2017-11-27T00:59:57.237Z,9.40
2017-11-27T01:00:57.233Z,9.50
2017-11-27T01:01:57.233Z,14.50
2017-11-27T01:02:57.226Z,9.80
2017-11-27T01:03:57.220Z,7.60
2017-11-27T01:04:57.219Z,9.00
2017-11-27T01:05:57.217Z,14.80
2017-11-27T01:06:57.216Z,6.30
2017-11-27T01:07:57.208Z,12.70
2017-11-27T01:08:57.204Z,9.70
2017-11-27T01:09:57.233Z,8.60
2017-11-27T01:10:57.192Z,9.70
2017-11-27T01:11:57.196Z,7.10
2017-11-27T01:12:57.186Z,10.80
2017-11-27T01:13:57.188Z,10.20
2017-11-27T01:14:57.176Z,10.70
2017-11-27T01:15:57.174Z,10.00
2017-11-27T01:16:57.172Z,9.50
2017-11-27T01:17:57.177Z,9.20
2017-11-27T01:18:57.169Z,11.20
2017-11-27T01:19:57.164Z,9.70
2017-11-27T01:20:57.155Z,11.10
2017-11-27T01:21:57.156Z,7.70
2017-11-27T01:22:57.145Z,8.50
2017-11-27T01:23:57.145Z,12.00
2017-11-27T01:24:57.157Z,14.70
2017-11-27T01:25:57.137Z,9.80
2017-11-27T01:26:57.132Z,7.90
2017-11-27T01:27:57.130Z,10.30
2017-11-27T01:28:57.129Z,12.70
2017-11-27T01:29:57.119Z,14.90
2017-11-27T01:30:57.114Z,8.50
2017-11-27T01:31:57.123Z,13.10
2017-11-27T01:32:57.109Z,9.00
2017-11-27T01:33:57.104Z,7.40
2017-11-27T01:34:57.099Z,12.30
2017-11-27T01:35:57.097Z,14.50
2017-11-27T01:36:57.091Z,13.40
2017-11-27T01:37:57.091Z,10.80
2017-11-27T01:38:57.081Z,6.70
2017-11-27T01:39:57.085Z,11.50
2017-11-27T01:40:57.076Z,11.20
2017-11-27T01:41:57.074Z,15.70
2017-11-27T01:42:57.074Z,13.60
2017-11-27T01:43:57.058Z,14.10
2017-11-27T01:44:57.060Z,10.70
2017-11-27T01:45:57.059Z,10.40
2017-11-27T01:46:57.051Z,8.90
2017-11-27T01:47:57.043Z,13.30
2017-11-27T01:48:57.043Z,9.90
2017-11-27T01:49:57.044Z,11.90
2017-11-27T01:50:57.033Z,14.10
2017-11-27T01:51:57.028Z,8.60
2017-11-27T01:52:57.023Z,13.90
2017-11-27T01:53:57.023Z,8.80
2017-11-27T01:54:57.016Z,15.30
2017-11-27T01:55:57.010Z,8.70
2017-11-27T01:56:57.010Z,11.20
2017-11-27T01:57:57.002Z,10.50
2017-11-27T01:58:57.005Z,9.20
2017-11-27T01:59:56.997Z,12.50
2017-11-27T02:00:56.992Z,9.20
2017-11-27T02:01:56.988Z,13.50
2017-11-27T02:02:56.986Z,12.70
2017-11-27T02:03:56.983Z,9.80
2017-11-27T02:04:56.982Z,11.30
2017-11-27T02:05:56.973Z,15.80
2017-11-27T02:06:56.970Z,9.80
2017-11-27T02:07:56.964Z,11.80
2017-11-27T02:08:56.954Z,12.70
2017-11-27T02:09:56.954Z,7.50
2017-11-27T02:10:56.949Z,8.80
2017-11-27T02:11:56.945Z,11.00
2017-11-27T02:12:56.944Z,12.10
2017-11-27T02:13:56.945Z,9.80
2017-11-27T02:14:56.935Z,12.00
2017-11-27T02:15:56.930Z,9.70
2017-11-27T02:16:56.930Z,8.10
2017-11-27T02:17:56.922Z,8.20
2017-11-27T02:18:56.912Z,8.60
2017-11-27T02:19:56.915Z,11.00
2017-11-27T02:20:56.908Z,13.50
2017-11-27T02:21:56.913Z,8.80
2017-11-27T02:22:56.907Z,8.90
2017-11-27T02:23:56.900Z,7.10
2017-11-27T02:24:56.890Z,12.00
2017-11-27T02:25:56.890Z,10.00
2017-11-27T02:26:56.882Z,9.90
2017-11-27T02:27:56.880Z,10.60
2017-11-27T02:28:56.881Z,9.90
2017-11-27T02:29:56.880Z,12.80
2017-11-27T02:30:56.867Z,11.00
2017-11-27T02:31:56.864Z,11.00
2017-11-27T02:32:56.859Z,17.10
2017-11-27T02:33:56.871Z,8.50
2017-11-27T02:34:56.853Z,12.30
2017-11-27T02:35:56.854Z,10.60
2017-11-27T02:36:56.843Z,10.10
2017-11-27T02:37:56.838Z,8.20
2017-11-27T02:38:56.834Z,7.10
2017-11-27T02:39:56.832Z,8.40
2017-11-27T02:40:56.825Z,14.50
2017-11-27T02:41:56.821Z,13.00
2017-11-27T02:42:56.819Z,10.00
2017-11-27T02:43:56.812Z,13.20
2017-11-27T02:44:56.803Z,10.40
2017-11-27T02:45:56.808Z,12.00
2017-11-27T02:46:56.801Z,13.00
2017-11-27T02:47:56.792Z,13.30
2017-11-27T02:48:56.789Z,11.70
2017-11-27T02:49:56.786Z,13.50
2017-11-27T02:50:56.786Z,14.30
2017-11-27T02:51:56.780Z,12.20
2017-11-27T02:52:56.776Z,10.10
2017-11-27T02:53:56.764Z,10.00
2017-11-27T02:54:56.763Z,13.10
2017-11-27T02:55:56.755Z,9.20
2017-11-27T02:56:56.752Z,9.40
2017-11-27T02:57:56.756Z,14.00
2017-11-27T02:58:56.745Z,10.70
2017-11-27T02:59:56.740Z,15.40
2017-11-27T03:00:56.735Z,11.40
2017-11-27T03:01:56.735Z,12.30
2017-11-27T03:02:56.730Z,12.10
2017-11-27T03:03:56.726Z,9.80
2017-11-27T03:04:56.714Z,10.70
2017-11-27T03:05:56.713Z,14.20
2017-11-27T03:06:56.715Z,12.30
2017-11-27T03:07:56.705Z,13.70
2017-11-27T03:08:56.700Z,11.30
2017-11-27T03:09:56.699Z,15.90
2017-11-27T03:10:56.688Z,12.90
2017-11-27T03:11:56.694Z,14.90
2017-11-27T03:12:56.679Z,10.10
2017-11-27T03:13:56.690Z,10.10
2017-11-27T03:14:56.674Z,9.70
2017-11-27T03:15:56.669Z,16.70
2017-11-27T03:16:56.663Z,13.00
2017-11-27T03:17:56.655Z,11.80
2017-11-27T03:18:56.662Z,10.40
2017-11-27T03:19:56.649Z,12.40
2017-11-27T03:20:56.677Z,14.30
2017-11-27T03:21:56.718Z,15.50
2017-11-27T03:22:56.639Z,15.20
2017-11-27T03:23:56.641Z,13.50
2017-11-27T03:24:56.628Z,9.40
2017-11-27T03:25:56.626Z,12.00
2017-11-27T03:26:56.619Z,11.80
2017-11-27T03:27:56.616Z,14.30
2017-11-27T03:28:56.609Z,10.70
2017-11-27T03:29:56.607Z,13.40
2017-11-27T03:30:56.601Z,12.80
2017-11-27T03:31:56.601Z,13.30
2017-11-27T03:32:56.599Z,10.50
2017-11-27T03:33:56.592Z,13.90
2017-11-27T03:34:56.583Z,15.60
2017-11-27T03:35:56.579Z,12.30
2017-11-27T03:36:56.574Z,13.00
2017-11-27T03:37:56.570Z,16.80
2017-11-27T03:38:56.564Z,13.30
2017-11-27T03:39:56.559Z,13.90
2017-11-27T03:40:56.557Z,10.00
2017-11-27T03:41:56.549Z,12.70
2017-11-27T03:42:56.544Z,12.30
2017-11-27T03:43:56.540Z,15.30
2017-11-27T03:44:56.535Z,15.80
2017-11-27T03:45:56.528Z,18.60
2017-11-27T03:46:56.529Z,15.70
2017-11-27T03:47:56.523Z,14.10
2017-11-27T03:48:56.522Z,16.90
2017-11-27T03:49:56.516Z,14.30
2017-11-27T03:50:56.504Z,14.90
2017-11-27T03:51:56.501Z,16.50
2017-11-27T03:52:56.497Z,19.50
2017-11-27T03:53:56.495Z,12.70
2017-11-27T03:54:56.493Z,15.20
2017-11-27T03:55:56.488Z,16.90
2017-11-27T03:56:56.481Z,21.20
2017-11-27T03:57:56.474Z,17.60
2017-11-27T03:58:56.479Z,19.40
2017-11-27T03:59:56.464Z,21.50
2017-11-27T04:00:56.465Z,16.50
2017-11-27T04:01:56.454Z,14.00
2017-11-27T04:02:56.449Z,17.10
2017-11-27T04:03:56.445Z,16.20
2017-11-27T04:04:56.439Z,13.00
2017-11-27T04:05:56.441Z,15.50
2017-11-27T04:06:56.431Z,16.60
2017-11-27T04:07:56.428Z,17.70
2017-11-27T04:08:56.424Z,17.30
2017-11-27T04:09:56.418Z,16.90
2017-11-27T04:10:56.419Z,18.20
2017-11-27T04:11:56.428Z,14.40
2017-11-27T04:12:56.410Z,15.80
2017-11-27T04:13:56.401Z,15.30
2017-11-27T04:14:56.407Z,15.90
2017-11-27T04:15:56.386Z,17.60
2017-11-27T04:16:56.389Z,14.10
2017-11-27T04:17:56.389Z,16.90
2017-11-27T04:18:56.378Z,15.10
2017-11-27T04:19:56.382Z,18.00
2017-11-27T04:20:56.366Z,17.70
2017-11-27T04:21:56.361Z,16.00
2017-11-27T04:22:56.365Z,17.30
2017-11-27T04:23:56.381Z,17.90
2017-11-27T04:24:56.353Z,16.90
2017-11-27T04:25:56.343Z,16.20
2017-11-27T04:26:56.340Z,13.90
2017-11-27T04:27:56.334Z,17.90
2017-11-27T04:28:56.326Z,17.60
2017-11-27T04:29:56.322Z,15.60
2017-11-27T04:30:56.318Z,18.40
2017-11-27T04:31:56.313Z,17.10
2017-11-27T04:32:56.311Z,22.20
2017-11-27T04:33:56.313Z,21.00
2017-11-27T04:34:56.306Z,18.50
2017-11-27T04:35:56.306Z,18.60
2017-11-27T04:36:56.295Z,17.20
2017-11-27T04:37:56.286Z,17.50
2017-11-27T04:38:56.290Z,18.20
2017-11-27T04:39:56.282Z,15.10
2017-11-27T04:40:56.274Z,17.50
2017-11-27T04:41:56.262Z,19.30
2017-11-27T04:42:56.266Z,16.00
2017-11-27T04:43:56.264Z,19.20
2017-11-27T04:44:56.255Z,17.50
2017-11-27T04:45:56.249Z,16.90
2017-11-27T04:46:56.244Z,16.90
2017-11-27T04:47:56.236Z,13.60
2017-11-27T04:48:56.234Z,18.80
2017-11-27T04:49:56.230Z,19.70
2017-11-27T04:50:56.223Z,23.00
2017-11-27T04:51:56.240Z,27.50
2017-11-27T04:52:56.212Z,19.00
2017-11-27T04:53:56.210Z,18.10
2017-11-27T04:54:56.211Z,17.80
2017-11-27T04:55:56.214Z,21.80
2017-11-27T04:56:56.197Z,18.30
2017-11-27T04:57:56.188Z,15.70
2017-11-27T04:58:56.199Z,17.00
2017-11-27T04:59:56.184Z,16.20
2017-11-27T05:00:56.182Z,20.50
2017-11-27T05:01:56.173Z,20.70
2017-11-27T05:02:56.174Z,20.60
2017-11-27T05:03:56.165Z,23.70
2017-11-27T05:04:56.177Z,20.10
2017-11-27T05:05:56.159Z,18.80
2017-11-27T05:06:56.153Z,18.20
2017-11-27T05:07:56.149Z,17.40
2017-11-27T05:08:56.144Z,18.90
2017-11-27T05:09:56.139Z,16.70
2017-11-27T05:10:56.132Z,16.00
2017-11-27T05:11:56.123Z,17.60
2017-11-27T05:12:56.119Z,19.50
2017-11-27T05:13:56.122Z,23.60
2017-11-27T05:14:56.109Z,23.40
2017-11-27T05:15:56.109Z,17.50
2017-11-27T05:16:56.103Z,17.20
2017-11-27T05:17:56.102Z,21.40
2017-11-27T05:18:56.092Z,17.20
2017-11-27T05:19:56.094Z,21.20
2017-11-27T05:20:56.083Z,17.30
2017-11-27T05:21:56.086Z,20.20
2017-11-27T05:22:56.073Z,19.00
2017-11-27T05:23:56.070Z,18.50
2017-11-27T05:24:56.062Z,18.80
2017-11-27T05:25:56.056Z,18.00
2017-11-27T05:26:56.058Z,20.30
2017-11-27T05:27:56.053Z,17.50
2017-11-27T05:28:56.047Z,17.50
2017-11-27T05:29:56.040Z,20.30
2017-11-27T05:30:56.036Z,18.60
2017-11-27T05:31:56.030Z,23.10
2017-11-27T05:32:56.031Z,16.90
2017-11-27T05:33:56.026Z,21.80
2017-11-27T05:34:56.020Z,21.00
2017-11-27T05:35:56.017Z,23.00
2017-11-27T05:36:56.005Z,21.10
2017-11-27T05:37:56.005Z,20.20
2017-11-27T05:38:55.997Z,23.10
2017-11-27T05:39:55.994Z,23.70
2017-11-27T05:40:55.988Z,18.10
2017-11-27T05:41:55.989Z,18.80
2017-11-27T05:42:55.980Z,23.40
2017-11-27T05:43:55.974Z,22.90
2017-11-27T05:44:55.978Z,21.50
2017-11-27T05:45:55.964Z,21.20
2017-11-27T05:46:55.961Z,18.70
2017-11-27T05:47:55.954Z,20.90
2017-11-27T05:48:55.953Z,20.40
2017-11-27T05:49:55.951Z,18.80
2017-11-27T05:50:55.943Z,18.60
2017-11-27T05:51:55.942Z,24.60
2017-11-27T05:52:55.936Z,16.90
2017-11-27T05:53:55.932Z,20.70
2017-11-27T05:54:55.926Z,21.00
2017-11-27T05:55:55.927Z,25.00
2017-11-27T05:56:55.914Z,20.30
2017-11-27T05:57:55.906Z,23.80
2017-11-27T05:58:55.903Z,23.80
2017-11-27T05:59:55.902Z,19.90
2017-11-27T06:00:55.905Z,18.90
2017-11-27T06:01:55.892Z,22.40
2017-11-27T06:02:55.893Z,21.80
2017-11-27T06:03:55.885Z,21.20
2017-11-27T06:04:55.877Z,19.60
2017-11-27T06:05:55.881Z,25.10
2017-11-27T06:06:55.875Z,21.40
2017-11-27T06:07:55.864Z,25.50
2017-11-27T06:08:55.870Z,19.70
2017-11-27T06:09:55.862Z,18.40
2017-11-27T06:10:55.854Z,20.80
2017-11-27T06:11:55.852Z,24.10
2017-11-27T06:12:55.846Z,22.90
2017-11-27T06:13:55.837Z,24.00
2017-11-27T06:14:55.855Z,20.00
2017-11-27T06:15:55.835Z,21.40
2017-11-27T06:16:55.826Z,20.80
2017-11-27T06:17:55.821Z,24.80
2017-11-27T06:18:55.821Z,24.10
2017-11-27T06:19:55.818Z,20.70
2017-11-27T06:20:55.810Z,22.10
2017-11-27T06:21:55.804Z,18.50
2017-11-27T06:22:55.805Z,20.60
2017-11-27T06:23:55.795Z,23.00
2017-11-27T06:24:55.795Z,18.30
2017-11-27T06:25:55.792Z,20.90
2017-11-27T06:26:55.781Z,18.80
2017-11-27T06:27:55.785Z,24.50
2017-11-27T06:28:55.775Z,20.30
2017-11-27T06:29:55.775Z,26.20
2017-11-27T06:30:55.777Z,18.00
2017-11-27T06:31:55.768Z,26.00
2017-11-27T06:32:55.759Z,22.10
2017-11-27T06:33:55.757Z,18.70
2017-11-27T06:34:55.751Z,23.60
2017-11-27T06:35:55.746Z,23.10
2017-11-27T06:36:55.746Z,21.00
2017-11-27T06:37:55.741Z,21.90
2017-11-27T06:38:55.735Z,20.40
2017-11-27T06:39:55.729Z,20.40
2017-11-27T06:40:55.725Z,19.00
2017-11-27T06:41:55.728Z,23.50
2017-11-27T06:42:55.715Z,22.80
2017-11-27T06:43:55.717Z,19.90
2017-11-27T06:44:55.710Z,19.40
2017-11-27T06:45:55.705Z,17.40
2017-11-27T06:46:55.708Z,19.20
2017-11-27T06:47:55.705Z,16.50
2017-11-27T06:48:55.695Z,19.90
2017-11-27T06:49:55.685Z,21.40
2017-11-27T06:50:55.686Z,20.80
2017-11-27T06:51:55.686Z,20.30
2017-11-27T06:52:55.677Z,19.00
2017-11-27T06:53:55.667Z,17.30
2017-11-27T06:54:55.668Z,23.70
2017-11-27T06:55:55.666Z,22.20
2017-11-27T06:56:55.655Z,21.50
2017-11-27T06:57:55.653Z,20.90
2017-11-27T06:58:55.651Z,19.90
2017-11-27T06:59:55.652Z,20.10
2017-11-27T07:00:55.649Z,22.00
2017-11-27T07:01:55.641Z,19.50
2017-11-27T07:02:55.642Z,19.50
2017-11-27T07:03:55.633Z,20.60
2017-11-27T07:04:55.624Z,18.20
2017-11-27T07:05:55.625Z,20.90
2017-11-27T07:06:55.621Z,19.90
2017-11-27T07:07:55.622Z,19.60
2017-11-27T07:08:55.615Z,20.20
2017-11-27T07:09:55.606Z,16.50
2017-11-27T07:10:55.603Z,19.30
2017-11-27T07:11:55.602Z,21.20
2017-11-27T07:12:55.596Z,22.50
2017-11-27T07:13:55.604Z,20.30
2017-11-27T07:14:55.587Z,21.40
2017-11-27T07:15:55.585Z,20.10
2017-11-27T07:16:55.577Z,21.30
2017-11-27T07:17:55.578Z,19.70
2017-11-27T07:18:55.579Z,20.70
2017-11-27T07:19:55.565Z,22.20
2017-11-27T07:20:55.565Z,16.50
2017-11-27T07:21:55.559Z,18.20
2017-11-27T07:22:55.563Z,18.30
2017-11-27T07:23:55.556Z,19.10
2017-11-27T07:24:55.564Z,19.50
2017-11-27T07:25:55.541Z,19.50
2017-11-27T07:26:55.539Z,19.60
2017-11-27T07:27:55.545Z,19.60
2017-11-27T07:28:55.532Z,20.00
2017-11-27T07:29:55.526Z,20.10
2017-11-27T07:30:55.524Z,16.80
2017-11-27T07:31:55.521Z,16.90
2017-11-27T07:32:55.515Z,20.50
2017-11-27T07:33:55.513Z,19.60
2017-11-27T07:34:55.507Z,15.50
2017-11-27T07:35:55.509Z,18.10
2017-11-27T07:36:55.511Z,16.90
2017-11-27T07:37:55.495Z,17.20
2017-11-27T07:38:55.491Z,16.00
2017-11-27T07:39:55.496Z,17.60
2017-11-27T07:40:55.496Z,16.80
2017-11-27T07:41:55.485Z,16.50
2017-11-27T07:42:55.480Z,20.60
2017-11-27T07:43:55.480Z,19.70
2017-11-27T07:44:55.470Z,22.70
2017-11-27T07:45:55.466Z,18.40
2017-11-27T07:46:55.460Z,20.60
2017-11-27T07:47:55.461Z,18.00
2017-11-27T07:48:55.459Z,18.80
2017-11-27T07:49:55.454Z,18.10
2017-11-27T07:50:55.446Z,17.30
2017-11-27T07:51:55.442Z,20.40
2017-11-27T07:52:55.444Z,22.90
2017-11-27T07:53:55.444Z,39.10
2017-11-27T07:54:55.442Z,33.80
2017-11-27T07:55:55.433Z,24.00
2017-11-27T07:56:55.424Z,18.70
2017-11-27T07:57:55.424Z,15.90
2017-11-27T07:58:55.419Z,21.40
2017-11-27T07:59:55.415Z,20.00
2017-11-27T08:00:55.415Z,16.70
2017-11-27T08:01:55.428Z,21.90
2017-11-27T08:02:55.405Z,20.30
2017-11-27T08:03:55.399Z,20.90
2017-11-27T08:04:56.154Z,18.20
2017-11-27T08:05:55.394Z,16.20
2017-11-27T08:06:55.388Z,17.80
2017-11-27T08:07:55.386Z,20.00
2017-11-27T08:08:55.383Z,20.60
2017-11-27T08:09:55.382Z,19.00
2017-11-27T08:10:55.371Z,18.40
2017-11-27T08:11:55.371Z,21.20
2017-11-27T08:12:55.365Z,23.40
2017-11-27T08:13:55.362Z,18.40
2017-11-27T08:14:55.364Z,25.00
2017-11-27T08:15:55.353Z,22.00
2017-11-27T08:16:55.353Z,18.60
2017-11-27T08:17:55.353Z,19.10
2017-11-27T08:18:55.347Z,27.30
2017-11-27T08:19:55.339Z,17.70
2017-11-27T08:20:55.347Z,20.60
2017-11-27T08:21:55.336Z,18.40
2017-11-27T08:22:55.333Z,22.70
2017-11-27T08:23:55.332Z,19.90
2017-11-27T08:24:55.324Z,26.40
2017-11-27T08:25:55.324Z,21.70
2017-11-27T08:26:55.318Z,18.90
2017-11-27T08:27:55.315Z,20.80
2017-11-27T08:28:55.374Z,19.60
2017-11-27T08:29:55.307Z,19.10
2017-11-27T08:30:55.307Z,17.60
2017-11-27T08:31:55.305Z,20.00
2017-11-27T08:32:55.296Z,20.40
2017-11-27T08:33:55.294Z,18.30
2017-11-27T08:34:55.291Z,20.90
2017-11-27T08:35:55.287Z,17.30
2017-11-27T08:36:55.286Z,17.60
2017-11-27T08:37:55.277Z,25.00
2017-11-27T08:38:55.281Z,24.70
2017-11-27T08:39:55.270Z,17.70
2017-11-27T08:40:55.268Z,19.50
2017-11-27T08:41:55.265Z,18.70
2017-11-27T08:42:55.257Z,22.80
2017-11-27T08:43:55.269Z,22.20
2017-11-27T08:44:55.253Z,18.40
2017-11-27T08:45:55.249Z,16.80
2017-11-27T08:46:55.247Z,22.20
2017-11-27T08:47:55.249Z,20.90
2017-11-27T08:48:55.245Z,18.40
2017-11-27T08:49:55.239Z,20.80
2017-11-27T08:50:55.242Z,22.70
2017-11-27T08:51:55.235Z,25.30
2017-11-27T08:52:55.232Z,17.00
2017-11-27T08:53:55.225Z,21.30
2017-11-27T08:54:55.223Z,16.30
2017-11-27T08:55:55.260Z,19.70
2017-11-27T08:56:55.217Z,23.10
2017-11-27T08:57:55.213Z,18.90
2017-11-27T08:58:55.242Z,23.50
2017-11-27T08:59:55.208Z,18.40
2017-11-27T09:00:55.201Z,17.30
2017-11-27T09:01:55.204Z,22.80
2017-11-27T09:02:55.200Z,21.70
2017-11-27T09:03:55.193Z,20.70
2017-11-27T09:04:55.196Z,18.40
2017-11-27T09:05:55.196Z,21.10
2017-11-27T09:06:55.183Z,19.70
2017-11-27T09:07:55.185Z,18.30
2017-11-27T09:08:55.180Z,19.70
2017-11-27T09:09:55.184Z,20.50
2017-11-27T09:10:55.170Z,21.40
2017-11-27T09:11:55.175Z,18.60
2017-11-27T09:12:55.165Z,21.60
2017-11-27T09:13:55.161Z,22.70
2017-11-27T09:14:55.163Z,23.80
2017-11-27T09:15:55.163Z,20.00
2017-11-27T09:16:55.152Z,17.00
2017-11-27T09:17:56.356Z,24.90
2017-11-27T09:18:55.151Z,19.30
2017-11-27T09:19:55.148Z,21.50
2017-11-27T09:20:55.142Z,18.50
2017-11-27T09:21:55.143Z,20.90
2017-11-27T09:22:55.153Z,19.90
2017-11-27T09:23:55.131Z,20.00
2017-11-27T09:24:55.129Z,23.30
2017-11-27T09:25:55.134Z,16.80
2017-11-27T09:26:55.127Z,19.50
2017-11-27T09:27:55.129Z,19.10
2017-11-27T09:28:55.130Z,25.70
2017-11-27T09:29:55.112Z,23.50
2017-11-27T09:30:55.122Z,15.50
2017-11-27T09:31:55.253Z,17.50
2017-11-27T09:32:55.112Z,20.40
2017-11-27T09:33:55.105Z,22.00
2017-11-27T09:34:55.104Z,17.40
2017-11-27T09:35:55.099Z,21.80
2017-11-27T09:36:55.098Z,23.40
2017-11-27T09:37:55.088Z,17.80
2017-11-27T09:38:55.089Z,20.10
2017-11-27T09:39:55.084Z,21.60
2017-11-27T09:40:55.093Z,20.40
2017-11-27T09:41:55.079Z,17.80
2017-11-27T09:42:55.078Z,19.00
2017-11-27T09:43:55.074Z,24.20
2017-11-27T09:44:55.075Z,15.80
2017-11-27T09:45:55.068Z,22.00
2017-11-27T09:46:55.067Z,18.60
2017-11-27T09:47:55.067Z,20.40
2017-11-27T09:48:55.058Z,26.30
2017-11-27T09:49:55.065Z,16.80
2017-11-27T09:50:55.060Z,21.10
2017-11-27T09:51:55.052Z,17.60
2017-11-27T09:52:55.050Z,22.20
2017-11-27T09:53:55.043Z,22.60
2017-11-27T09:54:55.044Z,17.20
2017-11-27T09:55:55.038Z,19.60
2017-11-27T09:56:55.035Z,15.60
2017-11-27T09:57:55.038Z,17.50
2017-11-27T09:58:55.039Z,20.10
2017-11-27T09:59:55.027Z,22.80
2017-11-27T10:00:55.031Z,20.30
2017-11-27T10:01:55.034Z,17.50
2017-11-27T10:02:55.023Z,16.70
2017-11-27T10:03:55.023Z,17.40
2017-11-27T10:04:55.018Z,18.80
2017-11-27T10:05:55.026Z,19.60
2017-11-27T10:06:55.007Z,16.60
2017-11-27T10:07:55.022Z,16.70
2017-11-27T10:08:55.009Z,14.50
2017-11-27T10:09:55.000Z,22.00
2017-11-27T10:10:55.002Z,14.90
2017-11-27T10:11:54.992Z,19.50
2017-11-27T10:12:54.993Z,17.40
2017-11-27T10:13:54.988Z,21.90
2017-11-27T10:14:54.985Z,17.60
2017-11-27T10:15:54.997Z,15.20
2017-11-27T10:16:54.982Z,14.80
2017-11-27T10:17:54.980Z,17.70
2017-11-27T10:18:54.978Z,17.80
2017-11-27T10:19:54.976Z,16.50
2017-11-27T10:20:55.001Z,16.70
2017-11-27T10:21:54.965Z,18.60
2017-11-27T10:22:54.974Z,17.20
2017-11-27T10:23:54.964Z,15.90
2017-11-27T10:24:54.966Z,13.70
2017-11-27T10:25:54.957Z,18.30
2017-11-27T10:26:54.952Z,17.70
2017-11-27T10:27:54.982Z,13.40
2017-11-27T10:28:54.947Z,19.00
2017-11-27T10:29:54.950Z,13.50
2017-11-27T10:30:54.953Z,17.80
2017-11-27T10:31:54.939Z,14.30
2017-11-27T10:32:54.937Z,26.40
2017-11-27T10:33:54.934Z,52.20
2017-11-27T10:34:55.028Z,43.20
2017-11-27T10:35:54.933Z,43.20
2017-11-27T10:36:54.926Z,30.40
2017-11-27T10:37:54.924Z,30.40
2017-11-27T10:38:54.927Z,24.20
2017-11-27T10:39:54.921Z,22.10
2017-11-27T10:40:54.915Z,20.70
2017-11-27T10:41:54.912Z,21.60
2017-11-27T10:42:54.914Z,30.30
2017-11-27T10:43:54.905Z,32.20
2017-11-27T10:44:54.908Z,25.80
2017-11-27T10:45:54.917Z,20.90
2017-11-27T10:46:54.906Z,15.60
2017-11-27T10:47:54.894Z,15.50
2017-11-27T10:48:54.892Z,13.40
2017-11-27T10:49:54.896Z,16.20
2017-11-27T10:50:54.887Z,17.60
2017-11-27T10:51:54.890Z,17.70
2017-11-27T10:52:54.889Z,17.80
2017-11-27T10:53:54.885Z,17.70
2017-11-27T10:54:54.877Z,15.50
2017-11-27T10:55:54.877Z,18.70
2017-11-27T10:56:54.876Z,22.00
2017-11-27T10:57:54.870Z,16.00
2017-11-27T10:58:54.868Z,18.00
2017-11-27T10:59:54.869Z,16.40
2017-11-27T11:00:54.869Z,19.30
2017-11-27T11:01:54.859Z,16.50
2017-11-27T11:02:54.857Z,21.30
2017-11-27T11:03:54.859Z,15.20
2017-11-27T11:04:54.850Z,17.30
2017-11-27T11:05:54.846Z,14.10
2017-11-27T11:06:54.847Z,20.60
2017-11-27T11:07:54.842Z,14.70
2017-11-27T11:08:56.582Z,20.20
2017-11-27T11:09:54.839Z,22.80
2017-11-27T11:10:54.838Z,18.40
2017-11-27T11:11:54.836Z,17.10
2017-11-27T11:12:54.833Z,15.40
2017-11-27T11:13:54.837Z,13.30
2017-11-27T11:14:54.825Z,14.50
2017-11-27T11:15:54.825Z,24.60
2017-11-27T11:16:54.817Z,15.70
2017-11-27T11:17:54.817Z,23.70
2017-11-27T11:18:54.817Z,15.90
2017-11-27T11:19:54.813Z,23.90
2017-11-27T11:20:54.805Z,19.10
2017-11-27T11:21:54.804Z,16.50
2017-11-27T11:22:54.802Z,19.20
2017-11-27T11:23:54.801Z,18.60
2017-11-27T11:24:54.796Z,22.10
2017-11-27T11:25:54.797Z,23.40
2017-11-27T11:26:54.795Z,21.30
2017-11-27T11:27:54.793Z,17.10
2017-11-27T11:28:54.785Z,14.00
2017-11-27T11:29:54.782Z,16.70
2017-11-27T11:30:54.781Z,23.60
2017-11-27T11:31:54.779Z,22.20
2017-11-27T11:32:54.772Z,14.20
2017-11-27T11:33:54.773Z,15.40
2017-11-27T11:34:54.772Z,13.60
2017-11-27T11:35:54.765Z,17.50
2017-11-27T11:36:54.767Z,20.90
2017-11-27T11:37:54.764Z,17.80
2017-11-27T11:38:54.756Z,16.20
2017-11-27T11:39:54.753Z,23.60
2017-11-27T11:40:54.762Z,13.80
2017-11-27T11:41:54.749Z,15.30
2017-11-27T11:42:54.750Z,11.60
2017-11-27T11:43:54.741Z,19.00
2017-11-27T11:44:54.740Z,25.00
2017-11-27T11:45:54.736Z,15.00
2017-11-27T11:46:54.731Z,12.30
2017-11-27T11:47:54.745Z,12.70
2017-11-27T11:48:54.729Z,13.60
2017-11-27T11:49:54.725Z,15.10
2017-11-27T11:50:54.719Z,22.00
2017-11-27T11:51:54.724Z,40.30
2017-11-27T11:52:54.714Z,42.30
2017-11-27T11:53:54.712Z,68.60
2017-11-27T11:54:54.712Z,42.90
2017-11-27T11:55:54.713Z,19.20
2017-11-27T11:56:54.704Z,16.70
2017-11-27T11:57:54.706Z,10.30
2017-11-27T11:58:54.698Z,9.50
2017-11-27T11:59:54.694Z,6.10
2017-11-27T12:00:54.696Z,6.50
2017-11-27T12:01:54.691Z,7.50
2017-11-27T12:02:54.687Z,7.10
2017-11-27T12:03:54.686Z,7.60
2017-11-27T12:04:54.683Z,5.80
2017-11-27T12:05:54.677Z,7.70
2017-11-27T12:06:54.674Z,5.70
2017-11-27T12:07:54.676Z,5.40
2017-11-27T12:08:54.663Z,5.50
2017-11-27T12:09:54.667Z,7.60
2017-11-27T12:10:54.665Z,6.30
2017-11-27T12:11:54.665Z,4.70
2017-11-27T12:12:54.653Z,7.80
2017-11-27T12:13:54.654Z,6.10
2017-11-27T12:14:54.651Z,5.50
2017-11-27T12:15:54.648Z,6.40
2017-11-27T12:16:54.639Z,6.00
2017-11-27T12:17:54.639Z,5.90
2017-11-27T12:18:54.637Z,5.50
2017-11-27T12:19:54.636Z,6.10
2017-11-27T12:20:54.631Z,6.10
2017-11-27T12:21:54.628Z,6.80
2017-11-27T12:22:54.626Z,5.20
2017-11-27T12:23:54.627Z,5.20
2017-11-27T12:24:54.621Z,4.10
2017-11-27T12:25:54.614Z,5.70
2017-11-27T12:26:54.613Z,4.60
2017-11-27T12:27:54.610Z,6.30
2017-11-27T12:28:54.608Z,3.30
2017-11-27T12:29:54.606Z,4.60
2017-11-27T12:30:54.599Z,6.20
2017-11-27T12:31:54.609Z,3.30
2017-11-27T12:32:54.593Z,3.90
2017-11-27T12:33:54.595Z,4.50
2017-11-27T12:34:54.585Z,4.60
2017-11-27T12:35:54.586Z,4.80
2017-11-27T12:36:54.590Z,4.90
2017-11-27T12:37:54.578Z,6.90
2017-11-27T12:38:54.573Z,3.80
2017-11-27T12:39:54.570Z,4.00
2017-11-27T12:40:54.577Z,3.80
2017-11-27T12:41:54.568Z,2.60
2017-11-27T12:42:54.568Z,3.70
2017-11-27T12:43:54.556Z,2.90
2017-11-27T12:44:54.558Z,4.20
2017-11-27T12:45:54.550Z,5.30
2017-11-27T12:46:54.549Z,3.50
2017-11-27T12:47:54.554Z,2.70
2017-11-27T12:48:54.542Z,3.10
2017-11-27T12:49:54.535Z,3.70
2017-11-27T12:50:54.541Z,3.50
2017-11-27T12:51:54.532Z,5.70
2017-11-27T12:52:54.536Z,4.00
2017-11-27T12:53:54.525Z,3.80
2017-11-27T12:54:54.527Z,3.80
2017-11-27T12:55:54.519Z,3.80
2017-11-27T12:56:54.513Z,3.80
2017-11-27T12:57:54.516Z,2.60